Time;durP1;ratioP1;P1;durP2;ratioP2;P2;SDS_P1;SDS_P2;PMS_P1;PMS_P2;Temp;Humidity;BMP_temperature;BMP_pressure;BME280_temperature;BME280_humidity;BME280_pressure;Samples;Min_cycle;Max_cycle;Signal;HPM_P1;HPM_P2
2023/10/11 00:00:56;;;;;;;16.20;8.68;;;15.80;99.90;;;;;;2043351;28;20030;-84
2023/10/11 00:02:00;;;;;;;14.55;8.02;;;15.80;99.90;;;;;;2044442;28;20392;-84
2023/10/11 00:03:06;;;;;;;14.30;8.05;;;15.80;99.90;;;;;;2045160;28;20027;-83
2023/10/11 00:04:23;;;;;;;13.52;7.72;;;15.80;99.90;;;;;;2026735;29;21301;-84
2023/10/11 00:05:24;;;;;;;13.52;7.88;;;15.80;99.90;;;;;;2023378;28;20047;-83
2023/10/11 00:06:26;;;;;;;16.75;8.15;;;15.70;99.90;;;;;;2037753;29;20141;-83
2023/10/11 00:07:26;;;;;;;13.70;8.02;;;15.70;99.90;;;;;;2037629;28;20031;-83
2023/10/11 00:08:27;;;;;;;16.65;8.10;;;15.70;99.90;;;;;;2038700;29;20127;-83
2023/10/11 00:09:38;;;;;;;12.77;7.28;;;15.70;99.90;;;;;;2053257;28;20041;-82
2023/10/11 00:10:49;;;;;;;17.65;7.68;;;15.70;99.90;;;;;;2049394;28;20058;-83
2023/10/11 00:11:49;;;;;;;13.40;7.53;;;15.70;99.90;;;;;;2042712;28;20386;-83
2023/10/11 00:12:50;;;;;;;12.38;7.45;;;15.70;99.90;;;;;;2048359;28;20022;-84
2023/10/11 00:13:53;;;;;;;15.15;8.20;;;15.70;99.90;;;;;;2046472;28;20031;-82
2023/10/11 00:14:57;;;;;;;16.65;8.43;;;15.70;99.90;;;;;;2044210;28;20430;-83
2023/10/11 00:15:58;;;;;;;15.13;8.02;;;15.60;99.90;;;;;;2050102;28;20108;-83
2023/10/11 00:16:58;;;;;;;12.98;8.30;;;15.60;99.90;;;;;;2046017;28;20283;-82
2023/10/11 00:17:59;;;;;;;15.65;9.27;;;15.60;99.90;;;;;;2041953;28;20028;-83
2023/10/11 00:18:59;;;;;;;14.55;8.90;;;15.50;99.90;;;;;;2041685;28;20063;-83
2023/10/11 00:20:03;;;;;;;17.10;9.15;;;15.50;99.90;;;;;;2039129;28;20055;-83
2023/10/11 00:21:11;;;;;;;16.10;8.85;;;15.50;99.90;;;;;;2038946;28;20035;-83
2023/10/11 00:22:11;;;;;;;15.18;8.27;;;15.40;99.90;;;;;;2045010;28;20487;-84
2023/10/11 00:23:12;;;;;;;19.92;8.60;;;15.40;99.90;;;;;;2035320;28;20087;-83
2023/10/11 00:24:13;;;;;;;13.95;8.70;;;15.40;99.90;;;;;;2042446;28;20035;-82
2023/10/11 00:25:23;;;;;;;14.82;8.65;;;15.40;99.90;;;;;;2032210;29;20327;-85
2023/10/11 00:26:24;;;;;;;18.20;9.00;;;15.40;99.90;;;;;;2037694;28;20100;-85
2023/10/11 00:27:30;;;;;;;16.08;8.27;;;15.30;99.90;;;;;;2046838;28;20042;-83
2023/10/11 00:28:32;;;;;;;15.65;8.70;;;15.30;99.90;;;;;;2045838;28;20578;-83
2023/10/11 00:29:39;;;;;;;17.98;9.13;;;15.30;99.90;;;;;;2054647;28;20038;-83
2023/10/11 00:30:39;;;;;;;17.23;8.52;;;15.30;99.90;;;;;;2044638;28;20027;-82
2023/10/11 00:31:40;;;;;;;14.77;8.57;;;15.30;99.90;;;;;;2039268;28;20383;-83
2023/10/11 00:32:41;;;;;;;14.38;8.70;;;15.20;99.90;;;;;;2049812;28;20023;-82
2023/10/11 00:33:42;;;;;;;16.30;8.43;;;15.20;99.90;;;;;;2047066;28;20391;-82
2023/10/11 00:34:43;;;;;;;15.60;8.27;;;15.20;99.90;;;;;;2036053;28;20554;-81
2023/10/11 00:35:48;;;;;;;16.55;8.30;;;15.20;99.90;;;;;;2042121;28;20031;-82
2023/10/11 00:36:49;;;;;;;15.05;8.10;;;15.20;99.90;;;;;;2044328;28;20058;-81
2023/10/11 00:37:54;;;;;;;13.40;8.63;;;15.20;99.90;;;;;;2042409;28;20015;-83
2023/10/11 00:38:56;;;;;;;14.00;8.23;;;15.10;99.90;;;;;;2033280;29;20472;-82
2023/10/11 00:39:57;;;;;;;14.35;8.70;;;15.20;99.90;;;;;;2032623;29;20478;-82
2023/10/11 00:41:07;;;;;;;15.32;8.70;;;15.10;99.90;;;;;;2042629;29;20488;-82
2023/10/11 00:42:08;;;;;;;;;;;15.10;99.90;;;;;;2042890;28;20615;-82
2023/10/11 00:43:12;;;;;;;16.63;7.80;;;15.10;99.90;;;;;;2032501;28;20403;-82
2023/10/11 00:44:19;;;;;;;19.52;8.32;;;15.10;99.90;;;;;;2043103;28;20045;-81
2023/10/11 00:45:30;;;;;;;15.93;8.20;;;15.10;99.90;;;;;;2038099;29;20130;-81
2023/10/11 00:46:38;;;;;;;14.75;7.88;;;15.10;99.90;;;;;;2038492;29;20020;-82
2023/10/11 00:47:40;;;;;;;15.18;8.35;;;15.10;99.90;;;;;;2047202;28;20031;-81
2023/10/11 00:48:54;;;;;;;14.30;7.80;;;15.10;99.90;;;;;;2044969;28;20156;-79
2023/10/11 00:49:55;;;;;;;16.00;8.00;;;15.10;99.90;;;;;;2043194;28;20551;-83
2023/10/11 00:50:56;;;;;;;15.60;7.88;;;15.00;99.90;;;;;;2039168;29;20160;-82
2023/10/11 00:51:57;;;;;;;12.98;7.93;;;15.00;99.90;;;;;;2030735;29;20036;-82
2023/10/11 00:53:01;;;;;;;14.98;8.27;;;15.00;99.90;;;;;;2044271;28;20095;-82
2023/10/11 00:54:04;;;;;;;12.55;7.85;;;15.00;99.90;;;;;;2051136;28;20040;-82
2023/10/11 00:55:09;;;;;;;15.13;8.00;;;15.00;99.90;;;;;;2048764;28;20042;-82
2023/10/11 00:56:10;;;;;;;15.13;8.13;;;15.00;99.90;;;;;;2047716;28;20035;-81
2023/10/11 00:57:15;;;;;;;14.25;7.65;;;15.00;99.90;;;;;;2034715;29;20024;-82
2023/10/11 00:58:17;;;;;;;14.68;7.53;;;14.90;99.90;;;;;;2041563;28;20049;-81
2023/10/11 00:59:21;;;;;;;18.65;8.00;;;15.00;99.90;;;;;;2043662;28;20537;-82
2023/10/11 01:00:23;;;;;;;13.02;8.00;;;15.00;99.90;;;;;;2053992;28;20379;-80
2023/10/11 01:01:24;;;;;;;14.82;7.93;;;15.00;99.90;;;;;;2039196;28;20123;-82
2023/10/11 01:02:27;;;;;;;14.80;8.18;;;14.90;99.90;;;;;;2034843;29;20387;-80
2023/10/11 01:03:31;;;;;;;17.67;8.60;;;14.90;99.90;;;;;;2039035;29;20036;-81
2023/10/11 01:04:37;;;;;;;13.55;8.25;;;14.90;99.90;;;;;;2050638;28;20039;-82
2023/10/11 01:05:43;;;;;;;15.13;8.00;;;14.90;99.90;;;;;;2038167;28;20031;-81
2023/10/11 01:06:47;;;;;;;16.70;7.68;;;14.90;99.90;;;;;;2047391;28;20031;-81
2023/10/11 01:07:50;;;;;;;16.00;8.23;;;14.90;99.90;;;;;;2046738;28;20408;-81
2023/10/11 01:08:52;;;;;;;14.00;7.88;;;14.90;99.90;;;;;;2042866;28;20111;-81
2023/10/11 01:09:52;;;;;;;14.48;7.95;;;14.90;99.90;;;;;;2042698;29;20028;-81
2023/10/11 01:10:53;;;;;;;14.45;7.72;;;14.90;99.90;;;;;;2044619;28;20032;-81
2023/10/11 01:11:53;;;;;;;13.82;8.13;;;14.90;99.90;;;;;;2047979;28;20114;-81
2023/10/11 01:12:54;;;;;;;14.10;8.25;;;14.90;99.90;;;;;;2038550;28;20119;-82
2023/10/11 01:13:55;;;;;;;16.20;8.43;;;14.90;99.90;;;;;;2050240;28;20031;-83
2023/10/11 01:14:57;;;;;;;14.35;8.20;;;14.90;99.90;;;;;;2053092;28;20027;-82
2023/10/11 01:15:57;;;;;;;16.60;8.30;;;14.90;99.90;;;;;;2053148;28;20030;-83
2023/10/11 01:16:59;;;;;;;17.88;8.52;;;14.90;99.90;;;;;;2042479;28;20027;-83
2023/10/11 01:18:00;;;;;;;15.55;8.70;;;14.80;99.90;;;;;;2044494;28;20035;-83
2023/10/11 01:19:01;;;;;;;14.93;8.50;;;14.80;99.90;;;;;;2042974;28;20114;-83
2023/10/11 01:20:05;;;;;;;18.67;9.48;;;14.80;99.90;;;;;;2036575;29;20032;-82
2023/10/11 01:21:08;;;;;;;15.45;8.68;;;14.80;99.90;;;;;;2046357;28;20173;-83
2023/10/11 01:22:09;;;;;;;15.20;9.02;;;14.80;99.90;;;;;;2045879;28;20031;-84
2023/10/11 01:23:09;;;;;;;13.40;8.50;;;14.80;99.90;;;;;;2040230;28;20318;-83
2023/10/11 01:24:10;;;;;;;17.42;9.30;;;14.80;99.90;;;;;;2043320;28;20051;-83
2023/10/11 01:25:18;;;;;;;15.27;8.32;;;14.80;99.90;;;;;;2035489;29;20767;-82
2023/10/11 01:26:19;;;;;;;16.85;8.75;;;14.80;99.90;;;;;;2032530;29;20079;-83
2023/10/11 01:27:22;;;;;;;16.60;8.63;;;14.80;99.90;;;;;;2035527;29;20119;-82
2023/10/11 01:28:22;;;;;;;15.18;8.95;;;14.80;99.90;;;;;;2032117;29;20028;-84
2023/10/11 01:29:24;;;;;;;17.80;8.82;;;14.80;99.90;;;;;;2035887;29;20114;-84
2023/10/11 01:30:28;;;;;;;13.90;8.32;;;14.80;99.90;;;;;;2039928;29;20083;-82
2023/10/11 01:31:33;;;;;;;16.02;8.23;;;14.80;99.90;;;;;;2048362;28;20510;-82
2023/10/11 01:32:37;;;;;;;17.73;8.10;;;14.80;99.90;;;;;;2051397;28;20406;-81
2023/10/11 01:33:42;;;;;;;15.32;7.97;;;14.80;99.90;;;;;;2046413;28;20039;-82
2023/10/11 01:34:44;;;;;;;14.25;8.15;;;14.80;99.90;;;;;;2052007;28;20043;-82
2023/10/11 01:35:48;;;;;;;16.73;8.68;;;14.70;99.90;;;;;;2036135;28;20024;-82
2023/10/11 01:36:49;;;;;;;13.60;8.02;;;14.70;99.90;;;;;;2039970;29;20028;-83
2023/10/11 01:37:55;;;;;;;15.15;8.63;;;14.70;99.90;;;;;;2052419;28;20045;-82
2023/10/11 01:39:00;;;;;;;15.75;8.40;;;14.70;99.90;;;;;;2037074;28;20142;-84
2023/10/11 01:40:05;;;;;;;12.30;8.18;;;14.70;99.90;;;;;;2028607;29;20028;-82
2023/10/11 01:41:06;;;;;;;13.98;8.10;;;14.60;99.90;;;;;;2029041;29;20032;-83
2023/10/11 01:42:07;;;;;;;18.45;8.63;;;14.60;99.90;;;;;;2035598;28;20449;-81
2023/10/11 01:43:07;;;;;;;13.82;8.13;;;14.60;99.90;;;;;;2049871;28;20023;-81
2023/10/11 01:44:08;;;;;;;17.02;8.18;;;14.60;99.90;;;;;;2042290;28;20030;-81
2023/10/11 01:45:09;;;;;;;14.70;7.85;;;14.60;99.90;;;;;;2039587;28;20038;-81
2023/10/11 01:46:09;;;;;;;16.92;8.30;;;14.70;99.90;;;;;;2037148;28;20035;-82
2023/10/11 01:47:10;;;;;;;18.17;8.93;;;14.70;99.90;;;;;;2048030;28;20510;-81
2023/10/11 01:48:11;;;;;;;12.25;8.18;;;14.60;99.90;;;;;;2053861;28;20038;-82
2023/10/11 01:49:12;;;;;;;14.70;8.20;;;14.60;99.90;;;;;;2053081;28;20530;-82
2023/10/11 01:50:17;;;;;;;14.80;8.48;;;14.60;99.90;;;;;;2038927;28;20139;-81
2023/10/11 01:51:27;;;;;;;15.50;7.75;;;14.60;99.90;;;;;;2043810;28;20027;-82
2023/10/11 01:52:27;;;;;;;15.30;8.40;;;14.60;99.90;;;;;;2052403;28;20036;-82
2023/10/11 01:53:28;;;;;;;15.13;8.52;;;14.60;99.90;;;;;;2052468;28;20027;-83
2023/10/11 01:54:29;;;;;;;15.27;8.55;;;14.60;99.90;;;;;;2054559;28;20034;-81
2023/10/11 01:55:29;;;;;;;15.82;8.30;;;14.50;99.90;;;;;;2051374;28;20065;-82
2023/10/11 01:56:30;;;;;;;15.30;8.52;;;14.50;99.90;;;;;;2049592;28;20078;-81
2023/10/11 01:57:32;;;;;;;16.80;8.45;;;14.50;99.90;;;;;;2043518;28;20031;-81
2023/10/11 01:58:37;;;;;;;17.25;8.93;;;14.50;99.90;;;;;;2034026;29;20590;-81
2023/10/11 01:59:38;;;;;;;17.83;9.00;;;14.50;99.90;;;;;;2037745;28;20032;-82
2023/10/11 02:00:39;;;;;;;19.60;9.60;;;14.50;99.90;;;;;;2041253;28;20730;-82
2023/10/11 02:01:40;;;;;;;13.85;8.68;;;14.40;99.90;;;;;;2040738;28;20038;-81
2023/10/11 02:02:55;;;;;;;15.15;8.88;;;14.40;99.90;;;;;;2045715;28;20034;-82
2023/10/11 02:03:59;;;;;;;15.95;9.25;;;14.40;99.90;;;;;;2040381;28;20683;-74
2023/10/11 02:04:59;;;;;;;16.67;9.15;;;14.40;99.90;;;;;;2049770;28;20485;-81
2023/10/11 02:06:04;;;;;;;18.05;9.38;;;14.30;99.90;;;;;;2041339;29;20055;-82
2023/10/11 02:07:05;;;;;;;16.90;9.05;;;14.30;99.90;;;;;;2035694;29;20040;-82
2023/10/11 02:08:06;;;;;;;15.18;9.57;;;14.30;99.90;;;;;;2033432;29;20019;-82
2023/10/11 02:09:09;;;;;;;20.75;9.57;;;14.30;99.90;;;;;;2045600;28;20042;-82
2023/10/11 02:10:13;;;;;;;13.85;9.00;;;14.30;99.90;;;;;;2047967;28;20027;-81
2023/10/11 02:11:14;;;;;;;16.52;9.63;;;14.30;99.90;;;;;;2043888;28;20053;-82
2023/10/11 02:12:17;;;;;;;17.30;9.80;;;14.20;99.90;;;;;;2043324;28;20138;-81
2023/10/11 02:13:18;;;;;;;15.43;9.93;;;14.20;99.90;;;;;;2036272;28;20138;-82
2023/10/11 02:14:22;;;;;;;19.10;10.13;;;14.20;99.90;;;;;;2042462;28;20164;-83
2023/10/11 02:15:29;;;;;;;18.15;9.88;;;14.20;99.90;;;;;;2034848;29;20530;-81
2023/10/11 02:16:32;;;;;;;16.15;9.68;;;14.20;99.90;;;;;;2029899;28;20028;-83
2023/10/11 02:17:33;;;;;;;16.92;10.02;;;14.20;99.90;;;;;;2045613;28;20073;-83
2023/10/11 02:18:34;;;;;;;19.38;9.98;;;14.10;99.90;;;;;;2049472;28;20027;-81
2023/10/11 02:19:34;;;;;;;18.50;10.10;;;14.10;99.90;;;;;;2043450;28;20410;-82
2023/10/11 02:20:35;;;;;;;17.98;10.55;;;14.10;99.90;;;;;;2041580;28;20038;-82
2023/10/11 02:21:36;;;;;;;21.52;11.10;;;14.10;99.90;;;;;;2035171;29;20046;-81
2023/10/11 02:22:37;;;;;;;20.05;11.45;;;14.10;99.90;;;;;;2043290;28;20732;-81
2023/10/11 02:23:40;;;;;;;17.67;11.43;;;14.10;99.90;;;;;;2035861;29;20035;-83
2023/10/11 02:24:40;;;;;;;17.33;10.95;;;14.10;99.90;;;;;;2035087;29;20412;-83
2023/10/11 02:25:41;;;;;;;17.00;11.38;;;14.10;99.90;;;;;;2027354;29;20029;-82
2023/10/11 02:26:49;;;;;;;17.88;11.27;;;14.10;99.90;;;;;;2043892;28;20031;-82
2023/10/11 02:27:51;;;;;;;19.88;10.88;;;14.10;99.90;;;;;;2046077;28;20035;-83
2023/10/11 02:28:52;;;;;;;18.23;10.93;;;14.10;99.90;;;;;;2043129;28;20024;-83
2023/10/11 02:29:52;;;;;;;17.52;11.57;;;14.10;99.90;;;;;;2043742;29;20126;-82
2023/10/11 02:30:55;;;;;;;16.63;11.82;;;14.10;99.90;;;;;;2042947;28;20042;-81
2023/10/11 02:31:58;;;;;;;20.25;11.93;;;14.10;99.90;;;;;;2042871;28;20031;-82
2023/10/11 02:32:58;;;;;;;18.13;11.65;;;14.10;99.90;;;;;;2042614;28;20038;-83
2023/10/11 02:34:15;;;;;;;20.25;12.40;;;14.00;99.90;;;;;;2046219;28;20109;-82
2023/10/11 02:35:18;;;;;;;17.45;12.48;;;14.00;99.90;;;;;;2052115;28;20065;-83
2023/10/11 02:36:18;;;;;;;17.77;12.07;;;14.00;99.90;;;;;;2048366;28;20039;-82
2023/10/11 02:37:22;;;;;;;18.10;12.32;;;14.00;99.90;;;;;;2042445;28;20034;-82
2023/10/11 02:38:23;;;;;;;19.90;12.18;;;14.00;99.90;;;;;;2043577;28;20041;-82
2023/10/11 02:39:34;;;;;;;18.77;12.65;;;14.00;99.90;;;;;;2035651;28;20191;-80
2023/10/11 02:40:37;;;;;;;;;;;14.10;99.90;;;;;;2045061;28;20083;-83
2023/10/11 02:41:38;;;;;;;22.77;13.13;;;14.10;99.90;;;;;;2049795;28;19921;-82
2023/10/11 02:42:43;;;;;;;23.38;13.43;;;14.10;99.90;;;;;;2039150;28;20411;-83
2023/10/11 02:43:49;;;;;;;19.92;12.40;;;14.10;99.90;;;;;;2043928;28;20031;-82
2023/10/11 02:44:50;;;;;;;21.13;13.18;;;14.10;99.90;;;;;;2051554;28;20031;-82
2023/10/11 02:45:51;;;;;;;21.90;13.93;;;14.10;99.90;;;;;;2043276;28;20035;-83
2023/10/11 02:46:52;;;;;;;19.73;13.15;;;14.10;99.90;;;;;;2039744;28;20032;-85
2023/10/11 02:47:59;;;;;;;21.63;12.93;;;14.10;99.90;;;;;;2051906;28;20019;-83
2023/10/11 02:49:12;;;;;;;18.30;12.85;;;14.10;99.90;;;;;;2051724;28;20039;-82
2023/10/11 02:50:12;;;;;;;18.85;13.02;;;14.00;99.90;;;;;;2039889;28;20032;-82
2023/10/11 02:51:17;;;;;;;19.10;13.65;;;14.00;99.90;;;;;;2051480;28;20677;-81
2023/10/11 02:52:18;;;;;;;18.98;13.18;;;14.00;99.90;;;;;;2051789;28;20035;-82
2023/10/11 02:53:22;;;;;;;20.17;13.00;;;13.90;99.90;;;;;;2042934;28;20054;-82
2023/10/11 02:54:26;;;;;;;21.02;12.88;;;13.90;99.90;;;;;;2043395;28;20031;-83
2023/10/11 02:55:27;;;;;;;22.05;14.05;;;13.90;99.90;;;;;;2044486;28;20102;-82
2023/10/11 02:56:28;;;;;;;23.23;13.23;;;13.90;99.90;;;;;;2039014;29;20307;-82
2023/10/11 02:57:29;;;;;;;17.15;13.20;;;13.90;99.90;;;;;;2038118;29;20035;-83
2023/10/11 02:58:30;;;;;;;21.45;13.70;;;13.90;99.90;;;;;;2039939;28;20046;-82
2023/10/11 02:59:33;;;;;;;20.25;13.88;;;14.00;99.90;;;;;;2042965;28;20062;-82
2023/10/11 03:00:34;;;;;;;25.33;15.05;;;13.90;99.90;;;;;;2041581;28;20058;-82
2023/10/11 03:01:38;;;;;;;22.20;14.10;;;13.90;99.90;;;;;;2040598;28;20042;-81
2023/10/11 03:02:39;;;;;;;20.15;14.02;;;13.90;99.90;;;;;;2035058;29;20036;-80
2023/10/11 03:03:44;;;;;;;21.50;14.13;;;13.90;99.90;;;;;;2034681;29;20032;-70
2023/10/11 03:04:44;;;;;;;20.67;14.27;;;13.80;99.90;;;;;;2044614;28;20615;-79
2023/10/11 03:05:45;;;;;;;21.15;14.48;;;13.80;99.90;;;;;;2039476;28;20482;-75
2023/10/11 03:06:49;;;;;;;22.80;15.35;;;13.80;99.90;;;;;;2034962;29;20071;-73
2023/10/11 03:07:50;;;;;;;20.48;14.85;;;13.70;99.90;;;;;;2043324;28;20131;-80
2023/10/11 03:08:53;;;;;;;23.25;15.02;;;13.80;99.90;;;;;;2050496;28;20030;-80
2023/10/11 03:09:54;;;;;;;21.77;14.90;;;13.70;99.90;;;;;;2042470;28;20106;-80
2023/10/11 03:10:56;;;;;;;21.48;14.68;;;13.70;99.90;;;;;;2034858;29;20043;-80
2023/10/11 03:11:57;;;;;;;19.67;14.73;;;13.70;99.90;;;;;;2031036;29;20085;-79
2023/10/11 03:12:57;;;;;;;19.77;14.35;;;13.70;99.90;;;;;;2026336;29;20103;-79
2023/10/11 03:13:58;;;;;;;21.42;15.05;;;13.70;99.90;;;;;;2015334;29;20416;-79
2023/10/11 03:15:05;;;;;;;32.15;24.45;;;13.70;99.90;;;;;;2042432;28;20538;-78
2023/10/11 03:16:11;;;;;;;23.80;15.82;;;13.60;99.90;;;;;;2041238;28;20035;-79
2023/10/11 03:17:15;;;;;;;28.40;17.55;;;13.60;99.90;;;;;;2042620;28;20118;-79
2023/10/11 03:18:16;;;;;;;22.52;16.25;;;13.60;99.90;;;;;;2042503;28;20090;-80
2023/10/11 03:19:17;;;;;;;22.63;15.57;;;13.60;99.90;;;;;;2043579;28;20069;-80
2023/10/11 03:20:36;;;;;;;20.58;15.63;;;13.60;99.90;;;;;;2054423;28;20131;-79
2023/10/11 03:21:36;;;;;;;23.95;15.88;;;13.60;99.90;;;;;;2048812;28;20037;-78
2023/10/11 03:22:37;;;;;;;27.10;16.30;;;13.60;99.90;;;;;;2051202;28;20489;-79
2023/10/11 03:23:45;;;;;;;30.90;16.80;;;13.50;99.90;;;;;;2042528;28;20608;-79
2023/10/11 03:24:53;;;;;;;24.35;16.60;;;13.60;99.90;;;;;;2040535;28;20039;-79
2023/10/11 03:25:55;;;;;;;26.77;16.00;;;13.50;99.90;;;;;;2050984;28;20026;-79
2023/10/11 03:26:59;;;;;;;23.20;16.48;;;13.50;99.90;;;;;;2034775;28;20035;-78
2023/10/11 03:28:02;;;;;;;27.48;16.15;;;13.50;99.90;;;;;;2033616;28;20169;-79
2023/10/11 03:29:04;;;;;;;22.27;16.02;;;13.50;99.90;;;;;;2047389;28;20034;-78
2023/10/11 03:30:11;;;;;;;22.75;15.77;;;13.50;99.90;;;;;;2051198;28;20030;-80
2023/10/11 03:31:12;;;;;;;24.65;16.17;;;13.40;99.90;;;;;;2045071;28;20031;-79
2023/10/11 03:32:13;;;;;;;25.88;16.45;;;13.40;99.90;;;;;;2040981;28;20130;-79
2023/10/11 03:33:13;;;;;;;26.63;16.92;;;13.40;99.90;;;;;;2038600;28;20024;-78
2023/10/11 03:34:14;;;;;;;24.58;17.25;;;13.50;99.90;;;;;;2044500;28;20083;-77
2023/10/11 03:35:18;;;;;;;24.05;16.60;;;13.50;99.90;;;;;;2049653;28;20041;-78
2023/10/11 03:36:21;;;;;;;22.80;17.02;;;13.50;99.90;;;;;;2038204;29;20433;-79
2023/10/11 03:37:21;;;;;;;23.73;16.88;;;13.60;99.90;;;;;;2039040;28;20027;-79
2023/10/11 03:38:22;;;;;;;26.73;16.75;;;13.60;99.90;;;;;;2050941;28;20031;-77
2023/10/11 03:39:39;;;;;;;22.98;15.75;;;13.60;99.90;;;;;;2042199;28;20024;-78
2023/10/11 03:40:55;;;;;;;23.85;16.33;;;13.60;99.90;;;;;;2037423;28;20195;-80
2023/10/11 03:43:16;;;;;;;24.60;16.23;;;13.60;99.90;;;;;;2046712;28;20023;-78
2023/10/11 03:44:17;;;;;;;24.65;16.27;;;13.60;99.90;;;;;;2040915;29;20215;-77
2023/10/11 03:45:20;;;;;;;23.60;16.27;;;13.60;99.90;;;;;;2042064;28;20291;-79
2023/10/11 03:46:25;;;;;;;22.77;15.95;;;13.60;99.90;;;;;;2050212;28;20398;-79
2023/10/11 03:47:27;;;;;;;27.80;16.55;;;13.60;99.90;;;;;;2050605;28;20041;-77
2023/10/11 03:48:28;;;;;;;25.60;16.27;;;13.60;99.90;;;;;;2057506;28;20033;-78
2023/10/11 03:50:34;;;;;;;21.48;16.13;;;13.60;99.90;;;;;;2047105;28;20086;-79
2023/10/11 03:51:35;;;;;;;22.73;16.52;;;13.50;99.90;;;;;;2046898;28;20046;-77
2023/10/11 03:52:40;;;;;;;25.10;16.05;;;13.50;99.90;;;;;;2043699;28;20077;-79
2023/10/11 03:53:40;;;;;;;24.42;16.77;;;13.50;99.90;;;;;;2051049;28;20119;-80
2023/10/11 03:54:42;;;;;;;31.02;17.10;;;13.50;99.90;;;;;;2048838;28;20034;-78
2023/10/11 03:55:46;;;;;;;25.25;16.65;;;13.50;99.90;;;;;;2045087;28;20054;-78
2023/10/11 03:56:52;;;;;;;25.45;15.77;;;13.60;99.90;;;;;;2038568;28;20929;-79
2023/10/11 03:57:53;;;;;;;24.00;16.17;;;13.50;99.90;;;;;;2039617;28;20074;-79
2023/10/11 03:58:53;;;;;;;25.42;16.77;;;13.50;99.90;;;;;;2050393;28;20069;-79
2023/10/11 03:59:54;;;;;;;26.33;16.98;;;13.50;99.90;;;;;;2042057;28;20035;-77
2023/10/11 04:01:00;;;;;;;24.50;16.60;;;13.50;99.90;;;;;;2037940;28;20093;-77
2023/10/11 04:02:01;;;;;;;24.98;16.35;;;13.60;99.90;;;;;;2041375;28;20046;-76
2023/10/11 04:03:05;;;;;;;23.13;16.35;;;13.50;99.90;;;;;;2028703;29;20140;-79
2023/10/11 04:04:05;;;;;;;21.30;15.98;;;13.50;99.90;;;;;;2042263;28;20035;-78
2023/10/11 04:05:06;;;;;;;21.58;15.95;;;13.50;99.90;;;;;;2045688;28;20038;-78
2023/10/11 04:06:14;;;;;;;23.80;15.57;;;13.50;99.90;;;;;;2050550;28;20050;-79
2023/10/11 04:07:16;;;;;;;23.05;16.50;;;13.50;99.90;;;;;;2050537;28;20026;-78
2023/10/11 04:08:24;;;;;;;26.88;16.13;;;13.50;99.90;;;;;;2048142;28;20675;-79
2023/10/11 04:10:46;;;;;;;23.52;15.88;;;13.50;99.90;;;;;;2046036;28;20034;-78
2023/10/11 04:11:55;;;;;;;23.77;16.30;;;13.40;99.90;;;;;;2049217;28;20045;-80
2023/10/11 04:12:56;;;;;;;25.80;15.90;;;13.40;99.90;;;;;;2049367;28;20482;-81
2023/10/11 04:13:57;;;;;;;27.30;17.48;;;13.40;99.90;;;;;;2050729;28;20037;-79
2023/10/11 04:15:05;;;;;;;23.38;16.85;;;13.40;99.90;;;;;;2034152;28;20545;-75
2023/10/11 04:16:07;;;;;;;25.83;16.92;;;13.40;99.90;;;;;;2042940;28;20334;-79
2023/10/11 04:19:32;;;;;;;22.42;16.30;;;13.40;99.90;;;;;;2035301;28;20358;-78
2023/10/11 04:20:33;;;;;;;24.58;15.95;;;13.30;99.90;;;;;;2041153;28;20047;-78
2023/10/11 04:21:53;;;;;;;23.85;16.33;;;13.30;99.90;;;;;;2042693;28;20043;-78
2023/10/11 04:23:09;;;;;;;;;;;13.30;99.90;;;;;;2050075;28;20042;-79
2023/10/11 04:24:10;;;;;;;25.08;16.10;;;13.30;99.90;;;;;;2044226;28;20384;-78
2023/10/11 04:25:13;;;;;;;25.10;16.00;;;13.20;99.90;;;;;;2047961;28;20022;-78
2023/10/11 04:26:33;;;;;;;22.35;15.85;;;13.20;99.90;;;;;;2046609;28;20035;-79
2023/10/11 04:28:41;;;;;;;26.98;16.45;;;13.20;99.90;;;;;;2050315;28;20035;-78
2023/10/11 04:29:42;;;;;;;25.55;16.50;;;13.20;99.90;;;;;;2037880;29;20562;-77
2023/10/11 04:30:46;;;;;;;23.50;15.25;;;13.20;99.90;;;;;;2040076;29;20019;-79
2023/10/11 04:32:09;;;;;;;22.25;15.70;;;13.20;99.90;;;;;;2040121;28;20030;-78
2023/10/11 04:33:12;;;;;;;24.85;16.15;;;13.20;99.90;;;;;;2037908;29;20027;-78
2023/10/11 04:34:14;;;;;;;25.83;15.30;;;13.20;99.90;;;;;;2041952;28;20082;-77
2023/10/11 04:36:21;;;;;;;26.77;16.15;;;13.20;99.90;;;;;;2050445;28;20015;-77
2023/10/11 04:37:30;;;;;;;24.52;15.98;;;13.20;99.90;;;;;;2050498;28;20528;-78
2023/10/11 04:38:33;;;;;;;25.75;16.63;;;13.20;99.90;;;;;;2050364;28;20406;-78
2023/10/11 04:39:34;;;;;;;20.45;15.93;;;13.20;99.90;;;;;;2041600;28;20057;-78
2023/10/11 04:40:39;;;;;;;22.52;15.77;;;13.20;99.90;;;;;;2037351;28;20076;-78
2023/10/11 04:41:49;;;;;;;28.35;16.90;;;13.20;99.90;;;;;;2051182;28;20022;-78
2023/10/11 04:43:04;;;;;;;27.00;16.90;;;13.20;99.90;;;;;;2035171;29;20067;-78
2023/10/11 04:44:13;;;;;;;25.48;17.20;;;13.20;99.90;;;;;;2038143;28;20594;-78
2023/10/11 04:45:28;;;;;;;25.42;16.85;;;13.20;99.90;;;;;;2047516;28;20031;-78
2023/10/11 04:46:30;;;;;;;22.08;16.40;;;13.20;99.90;;;;;;2045742;28;20113;-77
2023/10/11 04:47:50;;;;;;;26.25;16.50;;;13.20;99.90;;;;;;2050829;28;20046;-78
2023/10/11 04:48:55;;;;;;;25.00;16.50;;;13.20;99.90;;;;;;2051826;28;20038;-78
2023/10/11 04:49:57;;;;;;;24.20;15.93;;;13.20;99.90;;;;;;2052434;28;20023;-78
2023/10/11 04:51:06;;;;;;;22.27;15.18;;;13.20;99.90;;;;;;2051921;28;20031;-77
2023/10/11 04:52:13;;;;;;;24.30;16.00;;;13.20;99.90;;;;;;2042329;28;20031;-77
2023/10/11 04:53:18;;;;;;;28.13;16.63;;;13.20;99.90;;;;;;2041897;28;20254;-77
2023/10/11 04:54:18;;;;;;;26.58;15.57;;;13.20;99.90;;;;;;2050998;28;20022;-76
2023/10/11 04:55:26;;;;;;;25.42;16.50;;;13.20;99.90;;;;;;2050294;28;20832;-78
2023/10/11 04:59:20;;;;;;;27.30;15.88;;;13.20;99.90;;;;;;2031036;28;20094;-78
2023/10/11 05:00:20;;;;;;;23.02;15.45;;;13.20;99.90;;;;;;2035940;28;20043;-78
2023/10/11 05:01:29;;;;;;;22.63;16.10;;;13.20;99.90;;;;;;2047408;28;20077;-77
2023/10/11 05:02:32;;;;;;;23.05;15.77;;;13.20;99.90;;;;;;2038900;28;20027;-78
2023/10/11 05:03:37;;;;;;;21.38;15.43;;;13.20;99.90;;;;;;2037869;28;20027;-79
2023/10/11 05:04:47;;;;;;;22.95;15.85;;;13.20;99.90;;;;;;2047299;28;20156;-83
2023/10/11 05:06:13;;;;;;;23.90;16.02;;;13.20;99.90;;;;;;2043091;28;20035;-83
2023/10/11 05:07:08;;;;;;;;;;;13.20;99.90;;;;;;2045175;28;20063;-86
2023/10/11 05:08:20;;;;;;;24.45;15.05;;;13.20;99.90;;;;;;2049795;28;19906;-87
2023/10/11 05:09:29;;;;;;;21.63;14.82;;;13.20;99.90;;;;;;2043530;29;20047;-89
2023/10/11 05:10:43;;;;;;;23.65;15.30;;;13.20;99.90;;;;;;2033786;28;20036;-85
2023/10/11 05:11:44;;;;;;;25.50;15.10;;;13.30;99.90;;;;;;2039662;29;20030;-84
2023/10/11 05:12:46;;;;;;;27.58;15.45;;;13.20;99.90;;;;;;2052389;28;20480;-86
2023/10/11 05:13:59;;;;;;;22.42;15.20;;;13.20;99.90;;;;;;2051050;28;20116;-89
2023/10/11 05:15:06;;;;;;;27.35;14.77;;;13.30;99.90;;;;;;2045863;28;20459;-80
2023/10/11 05:16:07;;;;;;;24.30;15.13;;;13.30;99.90;;;;;;2037623;29;20035;-85
2023/10/11 05:18:18;;;;;;;21.45;14.05;;;13.30;99.90;;;;;;2046420;28;20037;-83
2023/10/11 05:19:20;;;;;;;21.15;14.95;;;13.30;99.90;;;;;;2052066;28;20016;-92
2023/10/11 05:20:23;;;;;;;23.58;14.82;;;13.30;99.90;;;;;;2050958;28;20039;-90
2023/10/11 05:21:26;;;;;;;21.15;14.35;;;13.30;99.90;;;;;;2043236;28;20027;-89
2023/10/11 05:23:52;;;;;;;22.85;15.07;;;13.30;99.90;;;;;;2039307;28;20118;-91
2023/10/11 05:26:16;;;;;;;21.55;13.68;;;13.40;99.90;;;;;;2042065;28;20028;-83
2023/10/11 05:28:51;;;;;;;23.35;14.68;;;13.50;99.90;;;;;;2043625;28;20059;-90
2023/10/11 05:31:22;;;;;;;22.52;14.02;;;13.60;99.90;;;;;;2036845;29;20056;-85
2023/10/11 05:32:27;;;;;;;24.35;14.82;;;13.60;99.90;;;;;;2039142;28;20043;-89
2023/10/11 05:33:41;;;;;;;25.13;15.00;;;13.60;99.90;;;;;;2050911;28;20415;-81
2023/10/11 05:35:06;;;;;;;23.33;14.18;;;13.50;99.90;;;;;;2046134;28;20035;-82
2023/10/11 05:36:16;;;;;;;24.77;15.00;;;13.50;99.90;;;;;;2039229;28;20054;-84
2023/10/11 05:50:50;;;;;;;23.25;13.90;;;13.70;99.90;;;;;;2030639;28;20039;-80
2023/10/11 05:51:51;;;;;;;22.65;13.95;;;13.80;99.90;;;;;;2050262;28;20494;-92
2023/10/11 05:52:55;;;;;;;22.77;13.63;;;13.80;99.90;;;;;;2049780;28;20167;-91
2023/10/11 05:53:59;;;;;;;19.90;12.75;;;13.80;99.90;;;;;;2039454;29;20091;-89
2023/10/11 05:55:00;;;;;;;21.13;13.00;;;13.80;99.90;;;;;;2030905;29;20062;-82
2023/10/11 05:56:02;;;;;;;19.52;13.82;;;13.90;99.90;;;;;;2047314;28;20114;-87
2023/10/11 05:57:05;;;;;;;24.00;13.35;;;13.90;99.90;;;;;;2052529;28;20023;-82
2023/10/11 05:58:06;;;;;;;21.15;13.48;;;14.00;99.90;;;;;;2051429;28;20035;-82